createdAt,value
2022-09-20T00:01:28.187Z,1.80
2022-09-20T00:03:59.491Z,1.70
2022-09-20T00:06:29.513Z,1.60
2022-09-20T00:08:59.506Z,1.90
2022-09-20T00:11:29.824Z,1.90
2022-09-20T00:14:00.249Z,1.60
2022-09-20T00:16:31.417Z,1.60
2022-09-20T00:19:04.122Z,1.33
2022-09-20T00:21:34.173Z,1.43
2022-09-20T00:24:02.737Z,2.13
2022-09-20T00:26:31.084Z,1.47
2022-09-20T00:29:00.158Z,1.50
2022-09-20T00:31:28.704Z,1.77
2022-09-20T00:34:14.943Z,2.10
2022-09-20T00:36:44.890Z,1.50
2022-09-20T00:39:15.236Z,2.23
2022-09-20T00:41:44.033Z,1.90
2022-09-20T00:44:43.790Z,1.80
2022-09-20T00:47:17.986Z,1.87
2022-09-20T00:49:46.902Z,1.80
2022-09-20T00:52:17.911Z,1.90
2022-09-20T00:54:46.332Z,1.77
2022-09-20T00:57:14.740Z,1.93
2022-09-20T00:59:46.635Z,2.00
2022-09-20T01:02:20.943Z,1.87
2022-09-20T01:04:50.640Z,1.97
2022-09-20T01:07:23.588Z,2.20
2022-09-20T01:09:52.529Z,1.60
2022-09-20T01:12:23.737Z,1.60
2022-09-20T01:14:53.210Z,1.63
2022-09-20T01:17:24.022Z,2.00
2022-09-20T01:20:09.107Z,2.57
2022-09-20T01:22:53.983Z,2.40
2022-09-20T01:25:49.028Z,2.27
2022-09-20T01:28:19.036Z,2.37
2022-09-20T01:30:52.797Z,2.20
2022-09-20T01:33:29.658Z,2.17
2022-09-20T01:36:03.433Z,1.93
2022-09-20T01:38:41.479Z,2.37
2022-09-20T01:41:15.865Z,7.87
2022-09-20T01:43:53.085Z,4.90
2022-09-20T01:46:32.236Z,2.60
2022-09-20T01:49:15.712Z,2.10
2022-09-20T01:52:28.097Z,1.90
2022-09-20T01:55:30.860Z,4.03
2022-09-20T01:58:38.275Z,3.73
2022-09-20T02:01:49.479Z,2.70
2022-09-20T02:04:47.710Z,3.67
2022-09-20T02:07:47.341Z,3.50
2022-09-20T02:10:39.580Z,2.67
2022-09-20T02:13:12.392Z,2.50
2022-09-20T02:16:12.292Z,2.80
2022-09-20T02:18:59.223Z,2.20
2022-09-20T02:21:36.223Z,2.90
2022-09-20T02:24:18.330Z,3.07
2022-09-20T02:26:58.531Z,2.50
2022-09-20T02:29:34.322Z,3.30
2022-09-20T02:32:24.919Z,2.23
2022-09-20T02:35:12.064Z,2.63
2022-09-20T02:37:58.365Z,2.20
2022-09-20T02:40:40.222Z,2.03
2022-09-20T02:43:18.966Z,2.20
2022-09-20T02:45:55.403Z,2.23
2022-09-20T02:48:29.005Z,2.17
2022-09-20T02:51:06.950Z,2.53
2022-09-20T02:53:44.296Z,2.87
2022-09-20T02:56:20.506Z,2.30
2022-09-20T02:58:56.624Z,2.43
2022-09-20T03:01:36.294Z,2.27
2022-09-20T03:04:19.880Z,2.80
2022-09-20T03:06:56.332Z,2.30
2022-09-20T03:09:33.340Z,2.50
2022-09-20T03:12:08.176Z,2.50
2022-09-20T03:14:39.374Z,2.80
2022-09-20T03:17:18.539Z,2.83
2022-09-20T03:20:08.000Z,2.73
2022-09-20T03:22:50.600Z,3.00
2022-09-20T03:25:49.278Z,2.80
2022-09-20T03:28:34.476Z,2.90
2022-09-20T03:31:12.575Z,2.63
2022-09-20T03:33:51.103Z,2.57
2022-09-20T03:36:33.523Z,2.70
2022-09-20T03:39:21.672Z,2.80
2022-09-20T03:42:14.561Z,3.67
2022-09-20T03:45:04.164Z,2.90
2022-09-20T03:48:04.305Z,2.90
2022-09-20T03:50:55.131Z,2.77
2022-09-20T03:54:02.102Z,2.57
2022-09-20T03:57:07.406Z,2.90
2022-09-20T04:00:04.267Z,2.70
2022-09-20T04:02:54.794Z,2.70
2022-09-20T04:05:33.533Z,2.83
2022-09-20T04:08:17.288Z,2.67
2022-09-20T04:10:59.756Z,2.63
2022-09-20T04:13:37.913Z,2.40
2022-09-20T04:16:30.925Z,3.40
2022-09-20T04:19:04.218Z,2.40
2022-09-20T04:21:37.040Z,3.13
2022-09-20T04:24:12.697Z,2.73
2022-09-20T04:26:46.033Z,2.57
2022-09-20T04:29:31.928Z,3.30
2022-09-20T04:32:08.577Z,2.40
2022-09-20T04:34:58.917Z,2.77
2022-09-20T04:37:33.165Z,2.20
2022-09-20T04:40:16.325Z,2.03
2022-09-20T04:43:15.697Z,3.43
2022-09-20T04:46:18.387Z,2.60
2022-09-20T04:49:20.898Z,1.97
2022-09-20T04:52:15.646Z,2.43
2022-09-20T04:55:25.714Z,2.10
2022-09-20T04:58:33.085Z,2.50
2022-09-20T05:01:37.174Z,2.30
2022-09-20T05:04:31.156Z,3.40
2022-09-20T05:07:33.793Z,2.17
2022-09-20T05:10:35.976Z,2.93
2022-09-20T05:13:16.904Z,2.30
2022-09-20T05:15:58.593Z,2.40
2022-09-20T05:19:07.395Z,2.47
2022-09-20T05:21:51.761Z,2.47
2022-09-20T05:24:38.363Z,2.63
2022-09-20T05:27:22.340Z,2.03
2022-09-20T05:29:56.943Z,2.90
2022-09-20T05:32:31.720Z,2.13
2022-09-20T05:35:06.126Z,2.57
2022-09-20T05:37:45.245Z,2.97
2022-09-20T05:40:23.187Z,2.50
2022-09-20T05:42:56.575Z,2.70
2022-09-20T05:45:47.338Z,2.93
2022-09-20T05:48:24.676Z,3.80
2022-09-20T05:51:03.850Z,3.50
2022-09-20T05:54:19.143Z,3.07
2022-09-20T05:56:55.372Z,3.33
2022-09-20T05:59:35.859Z,2.90
2022-09-20T06:02:29.106Z,3.20
2022-09-20T06:05:04.722Z,2.70
2022-09-20T06:07:56.058Z,2.93
2022-09-20T06:10:43.375Z,3.27
2022-09-20T06:13:31.447Z,3.20
2022-09-20T06:16:02.702Z,2.63
2022-09-20T06:18:35.581Z,3.40
2022-09-20T06:21:17.737Z,2.60
2022-09-20T06:23:47.491Z,2.80
2022-09-20T06:26:18.560Z,2.90
2022-09-20T06:28:50.296Z,3.20
2022-09-20T06:31:18.975Z,2.87
2022-09-20T06:33:54.168Z,3.30
2022-09-20T06:36:46.788Z,3.00
2022-09-20T06:39:43.867Z,3.17
2022-09-20T06:42:12.298Z,3.00
2022-09-20T06:44:43.301Z,2.77
2022-09-20T06:47:12.699Z,2.60
2022-09-20T06:49:42.357Z,3.40
2022-09-20T06:52:15.478Z,3.73
2022-09-20T06:54:46.756Z,3.50
2022-09-20T06:57:18.235Z,3.57
2022-09-20T06:59:47.723Z,3.00
2022-09-20T07:02:16.241Z,3.60
2022-09-20T07:04:45.155Z,3.20
2022-09-20T07:07:17.943Z,3.80
2022-09-20T07:09:47.835Z,3.30
2022-09-20T07:12:16.291Z,3.70
2022-09-20T07:14:44.624Z,3.43
2022-09-20T07:17:13.313Z,3.27
2022-09-20T07:19:41.647Z,3.10
2022-09-20T07:22:10.080Z,2.90
2022-09-20T07:24:39.134Z,3.20
2022-09-20T07:27:09.573Z,2.87
2022-09-20T07:29:37.834Z,3.03
2022-09-20T07:32:06.389Z,2.60
2022-09-20T07:34:34.628Z,2.97
2022-09-20T07:37:03.327Z,3.63
2022-09-20T07:39:31.586Z,4.00
2022-09-20T07:41:59.891Z,3.70
2022-09-20T07:44:29.599Z,3.20
2022-09-20T07:47:00.375Z,2.80
2022-09-20T07:49:30.802Z,3.17
2022-09-20T07:51:59.783Z,3.40
2022-09-20T07:54:28.500Z,2.87
2022-09-20T07:56:56.825Z,3.13
2022-09-20T07:59:26.032Z,3.23
2022-09-20T08:01:57.711Z,3.00
2022-09-20T08:04:26.589Z,3.83
2022-09-20T08:06:54.977Z,2.60
2022-09-20T08:09:23.388Z,2.87
2022-09-20T08:11:52.465Z,3.30
2022-09-20T08:14:21.500Z,3.03
2022-09-20T08:16:51.790Z,2.87
2022-09-20T08:19:23.201Z,3.10
2022-09-20T08:21:53.365Z,3.37
2022-09-20T08:24:22.131Z,3.63
2022-09-20T08:26:50.496Z,3.47
2022-09-20T08:29:18.988Z,3.60
2022-09-20T08:31:48.114Z,3.10
2022-09-20T08:34:17.742Z,2.60
2022-09-20T08:36:51.765Z,2.60
2022-09-20T08:42:16.145Z,3.63
2022-09-20T08:45:00.024Z,3.03
2022-09-20T08:47:31.213Z,3.30
2022-09-20T08:50:09.219Z,2.43
2022-09-20T08:52:40.755Z,2.80
2022-09-20T08:55:16.837Z,3.20
2022-09-20T08:57:49.098Z,2.87
2022-09-20T09:00:19.839Z,2.83
2022-09-20T09:02:49.071Z,2.83
2022-09-20T09:05:35.457Z,2.97
2022-09-20T09:08:08.984Z,3.60
2022-09-20T09:10:43.039Z,2.80
2022-09-20T09:13:20.478Z,3.50
2022-09-20T09:15:55.685Z,2.83
2022-09-20T09:18:31.772Z,2.53
2022-09-20T09:21:04.251Z,2.90
2022-09-20T09:23:42.249Z,2.70
2022-09-20T09:26:19.707Z,2.87
2022-09-20T09:28:48.474Z,3.37
2022-09-20T09:31:25.930Z,3.20
2022-09-20T09:33:56.087Z,2.63
2022-09-20T09:36:25.960Z,2.90
2022-09-20T09:39:17.350Z,3.67
2022-09-20T09:41:46.606Z,3.40
2022-09-20T09:44:23.822Z,2.83
2022-09-20T09:46:54.459Z,6.37
2022-09-20T09:49:24.165Z,3.23
2022-09-20T09:52:06.876Z,3.13
2022-09-20T09:54:39.260Z,3.20
2022-09-20T09:57:23.637Z,3.17
2022-09-20T10:00:11.712Z,2.80
2022-09-20T10:03:18.157Z,2.90
2022-09-20T10:06:00.180Z,2.90
2022-09-20T10:08:39.390Z,2.57
2022-09-20T10:11:22.594Z,2.90
2022-09-20T10:14:03.185Z,2.80
2022-09-20T10:16:48.260Z,2.37
2022-09-20T10:19:24.810Z,2.80
2022-09-20T10:22:01.838Z,2.90
2022-09-20T10:24:41.452Z,2.50
2022-09-20T10:27:26.164Z,2.77
2022-09-20T10:30:03.053Z,3.00
2022-09-20T10:32:59.531Z,3.07
2022-09-20T10:35:33.995Z,2.97
2022-09-20T10:38:13.962Z,2.83
2022-09-20T10:41:10.213Z,3.07
2022-09-20T10:44:01.472Z,3.50
2022-09-20T10:46:42.555Z,2.87
2022-09-20T10:49:24.171Z,2.73
2022-09-20T10:52:16.450Z,2.80
2022-09-20T10:54:59.732Z,3.00
2022-09-20T10:57:49.927Z,2.57
2022-09-20T11:00:25.064Z,3.10
2022-09-20T11:03:05.701Z,3.50
2022-09-20T11:05:44.679Z,2.77
2022-09-20T11:08:16.735Z,2.70
2022-09-20T11:10:49.117Z,3.03
2022-09-20T11:13:26.206Z,2.83
2022-09-20T11:16:02.350Z,3.07
2022-09-20T11:18:39.129Z,3.20
2022-09-20T11:21:11.933Z,3.50
2022-09-20T11:23:52.348Z,3.00
2022-09-20T11:26:26.711Z,2.90
2022-09-20T11:28:58.107Z,2.50
2022-09-20T11:31:32.918Z,2.97
2022-09-20T11:34:08.635Z,3.20
2022-09-20T11:36:44.076Z,2.77
2022-09-20T11:39:17.567Z,2.80
2022-09-20T11:41:46.768Z,3.10
2022-09-20T11:44:17.980Z,2.70
2022-09-20T11:46:54.187Z,2.80
2022-09-20T11:49:27.012Z,3.13
2022-09-20T11:52:22.045Z,3.00
2022-09-20T11:55:21.496Z,2.60
2022-09-20T11:58:02.014Z,3.10
2022-09-20T12:00:32.111Z,2.70
2022-09-20T12:03:03.852Z,2.70
2022-09-20T12:05:35.578Z,2.40
2022-09-20T12:08:07.655Z,1.93
2022-09-20T12:10:40.126Z,2.80
2022-09-20T12:13:19.439Z,2.97
2022-09-20T12:15:58.055Z,2.40
2022-09-20T12:18:38.687Z,2.53
2022-09-20T12:21:16.516Z,2.37
2022-09-20T12:23:47.029Z,2.30
2022-09-20T12:26:47.491Z,2.47
2022-09-20T12:29:54.960Z,1.77
2022-09-20T12:32:46.143Z,2.03
2022-09-20T12:36:05.933Z,1.50
2022-09-20T12:38:52.957Z,2.20
2022-09-20T12:41:28.217Z,1.67
2022-09-20T12:44:06.840Z,1.80
2022-09-20T12:46:50.781Z,1.67
2022-09-20T12:49:59.124Z,1.80
2022-09-20T12:52:53.891Z,2.30
2022-09-20T12:55:49.986Z,1.80
2022-09-20T12:58:39.718Z,2.27
2022-09-20T13:01:34.110Z,1.90
2022-09-20T13:04:57.134Z,2.00
2022-09-20T13:07:43.530Z,3.33
2022-09-20T13:10:24.921Z,2.20
2022-09-20T13:13:03.402Z,1.50
2022-09-20T13:15:33.441Z,1.47
2022-09-20T13:18:03.064Z,1.80
2022-09-20T13:20:34.983Z,1.60
2022-09-20T13:23:06.341Z,1.67
2022-09-20T13:25:35.510Z,2.10
2022-09-20T13:28:10.096Z,1.60
2022-09-20T13:30:42.084Z,1.73
2022-09-20T13:33:21.810Z,1.73
2022-09-20T13:35:54.568Z,1.50
2022-09-20T13:38:32.319Z,1.30
2022-09-20T13:41:06.383Z,1.50
2022-09-20T13:43:41.066Z,1.70
2022-09-20T13:46:11.230Z,2.10
2022-09-20T13:48:40.859Z,1.80
2022-09-20T13:51:19.306Z,1.70
2022-09-20T13:53:48.071Z,1.87
2022-09-20T13:56:21.324Z,1.60
2022-09-20T13:58:52.755Z,1.70
2022-09-20T14:01:29.611Z,1.40
2022-09-20T14:04:03.989Z,1.57
2022-09-20T14:06:33.308Z,1.90
2022-09-20T14:09:10.456Z,1.37
2022-09-20T14:11:40.999Z,1.70
2022-09-20T14:14:19.883Z,1.80
2022-09-20T14:16:51.319Z,1.50
2022-09-20T14:19:24.179Z,1.77
2022-09-20T14:21:52.981Z,1.87
2022-09-20T14:24:28.780Z,1.80
2022-09-20T14:27:21.751Z,1.77
2022-09-20T14:29:52.984Z,1.60
2022-09-20T14:32:42.166Z,1.63
2022-09-20T14:35:17.788Z,1.60
2022-09-20T14:37:48.897Z,1.73
2022-09-20T14:40:24.527Z,1.63
2022-09-20T14:42:56.696Z,1.47
2022-09-20T14:45:30.315Z,1.63
2022-09-20T14:48:06.696Z,1.57
2022-09-20T14:50:41.040Z,1.70
2022-09-20T14:53:37.086Z,1.50
2022-09-20T14:56:12.771Z,1.97
2022-09-20T14:59:04.632Z,2.10
2022-09-20T15:01:35.350Z,1.60
2022-09-20T15:04:09.933Z,1.70
2022-09-20T15:06:40.169Z,1.73
2022-09-20T15:09:11.791Z,1.60
2022-09-20T15:11:40.812Z,1.80
2022-09-20T15:14:09.454Z,1.67
2022-09-20T15:16:39.267Z,1.70
2022-09-20T15:19:08.566Z,1.60
2022-09-20T15:21:37.179Z,2.03
2022-09-20T15:24:05.815Z,1.40
2022-09-20T15:26:34.449Z,1.57
2022-09-20T15:29:02.719Z,1.40
2022-09-20T15:31:31.302Z,1.53
2022-09-20T15:34:00.984Z,1.83
2022-09-20T15:36:31.979Z,1.87
2022-09-20T15:39:00.680Z,1.63
2022-09-20T15:41:31.503Z,1.63
2022-09-20T15:43:59.966Z,1.30
2022-09-20T15:46:28.515Z,1.47
2022-09-20T15:48:57.534Z,2.07
2022-09-20T15:51:27.933Z,1.70
2022-09-20T15:53:57.920Z,1.73
2022-09-20T15:56:28.562Z,1.60
2022-09-20T15:59:00.364Z,1.43
2022-09-20T16:01:31.766Z,1.67
2022-09-20T16:04:00.656Z,1.40
2022-09-20T16:06:30.591Z,1.47
2022-09-20T16:08:58.838Z,1.60
2022-09-20T16:11:28.103Z,1.63
2022-09-20T16:13:57.549Z,1.70
2022-09-20T16:16:26.680Z,1.50
2022-09-20T16:19:12.785Z,1.50
2022-09-20T16:21:44.432Z,1.40
2022-09-20T16:24:13.489Z,1.53
2022-09-20T16:26:42.159Z,1.80
2022-09-20T16:29:11.299Z,1.57
2022-09-20T16:31:41.082Z,1.60
2022-09-20T16:34:14.451Z,1.30
2022-09-20T16:36:45.415Z,1.70
2022-09-20T16:39:15.013Z,1.50
2022-09-20T16:41:44.504Z,1.90
2022-09-20T16:44:13.163Z,2.33
2022-09-20T16:46:41.819Z,2.00
2022-09-20T16:49:12.499Z,1.90
2022-09-20T16:51:43.433Z,1.83
2022-09-20T16:54:13.405Z,2.10
2022-09-20T16:56:43.467Z,1.50
2022-09-20T16:59:12.828Z,2.00
2022-09-20T17:01:42.430Z,1.80
2022-09-20T17:04:13.411Z,1.87
2022-09-20T17:06:44.287Z,1.70
2022-09-20T17:09:13.555Z,1.80
2022-09-20T17:11:45.602Z,2.00
2022-09-20T17:14:15.116Z,2.33
2022-09-20T17:16:47.527Z,2.03
2022-09-20T17:19:18.547Z,1.83
2022-09-20T17:21:51.512Z,1.60
2022-09-20T17:24:20.840Z,1.70
2022-09-20T17:26:50.472Z,2.00
2022-09-20T17:29:20.751Z,1.90
2022-09-20T17:31:55.127Z,2.17
2022-09-20T17:34:25.468Z,1.97
2022-09-20T17:36:56.228Z,2.30
2022-09-20T17:39:24.886Z,2.70
2022-09-20T17:41:53.687Z,2.30
2022-09-20T17:44:21.960Z,1.93
2022-09-20T17:46:52.230Z,2.10
2022-09-20T17:49:22.264Z,2.00
2022-09-20T17:51:52.589Z,2.30
2022-09-20T17:54:22.740Z,2.10
2022-09-20T17:56:53.504Z,1.80
2022-09-20T17:59:22.176Z,2.20
2022-09-20T18:01:51.993Z,2.10
2022-09-20T18:04:21.413Z,3.33
2022-09-20T18:06:51.064Z,4.80
2022-09-20T18:09:22.571Z,1.67
2022-09-20T18:11:53.100Z,1.80
2022-09-20T18:14:23.688Z,1.67
2022-09-20T18:16:53.597Z,2.20
2022-09-20T18:19:22.857Z,2.10
2022-09-20T18:21:51.765Z,1.20
2022-09-20T18:24:21.365Z,1.73
2022-09-20T18:26:49.638Z,1.70
2022-09-20T18:29:19.098Z,1.87
2022-09-20T18:31:49.337Z,1.60
2022-09-20T18:34:19.637Z,1.60
2022-09-20T18:36:52.976Z,1.60
2022-09-20T18:39:24.187Z,1.77
2022-09-20T18:41:53.494Z,1.40
2022-09-20T18:44:22.876Z,1.70
2022-09-20T18:46:52.455Z,1.70
2022-09-20T18:49:21.655Z,1.50
2022-09-20T18:51:50.988Z,2.10
2022-09-20T18:54:19.631Z,1.60
2022-09-20T18:56:51.332Z,1.27
2022-09-20T18:59:21.640Z,1.30
2022-09-20T19:02:23.772Z,1.60
2022-09-20T19:05:15.287Z,2.00
2022-09-20T19:07:54.773Z,1.67
2022-09-20T19:10:34.828Z,1.50
2022-09-20T19:13:19.644Z,1.40
2022-09-20T19:16:02.377Z,2.03
2022-09-20T19:18:45.035Z,1.43
2022-09-20T19:21:22.552Z,1.93
2022-09-20T19:24:03.610Z,1.50
2022-09-20T19:26:38.170Z,1.57
2022-09-20T19:29:18.648Z,1.40
2022-09-20T19:31:49.238Z,1.47
2022-09-20T19:34:21.410Z,1.60
2022-09-20T19:37:10.674Z,1.63
2022-09-20T19:39:49.901Z,1.30
2022-09-20T19:42:28.646Z,1.63
2022-09-20T19:45:11.347Z,1.97
2022-09-20T19:47:49.181Z,1.90
2022-09-20T19:50:28.007Z,1.67
2022-09-20T19:52:57.235Z,2.00
2022-09-20T19:55:26.495Z,1.50
2022-09-20T19:57:55.770Z,1.80
2022-09-20T20:00:26.294Z,1.53
2022-09-20T20:02:55.256Z,1.57
2022-09-20T20:05:27.553Z,1.50
2022-09-20T20:08:09.031Z,1.90
2022-09-20T20:10:47.628Z,1.50
2022-09-20T20:13:36.181Z,1.50
2022-09-20T20:16:12.054Z,1.63
2022-09-20T20:18:48.125Z,2.23
2022-09-20T20:21:24.657Z,2.10
2022-09-20T20:24:09.359Z,2.07
2022-09-20T20:26:37.692Z,2.00
2022-09-20T20:29:06.028Z,2.37
2022-09-20T20:31:35.902Z,2.40
2022-09-20T20:34:04.424Z,1.87
2022-09-20T20:36:32.761Z,2.17
2022-09-20T20:39:02.644Z,1.80
2022-09-20T20:41:31.920Z,2.30
2022-09-20T20:44:00.164Z,2.00
2022-09-20T20:46:28.498Z,2.07
2022-09-20T20:48:58.561Z,2.50
2022-09-20T20:51:28.137Z,1.90
2022-09-20T20:53:58.294Z,1.70
2022-09-20T20:56:28.628Z,2.03
2022-09-20T20:59:00.744Z,2.00
2022-09-20T21:01:30.935Z,1.70
2022-09-20T21:04:01.525Z,1.83
2022-09-20T21:06:33.064Z,1.90
2022-09-20T21:09:02.462Z,2.03
2022-09-20T21:11:33.443Z,2.27
2022-09-20T21:14:03.302Z,1.67
2022-09-20T21:16:35.194Z,2.10
2022-09-20T21:19:06.057Z,1.87
2022-09-20T21:21:36.236Z,1.60
2022-09-20T21:24:06.361Z,1.90
2022-09-20T21:26:37.059Z,1.90
2022-09-20T21:29:07.388Z,2.90
2022-09-20T21:31:37.711Z,1.80
2022-09-20T21:34:09.193Z,1.97
2022-09-20T21:36:41.458Z,2.00
2022-09-20T21:39:10.158Z,2.33
2022-09-20T21:41:39.822Z,2.20
2022-09-20T21:44:09.856Z,2.30
2022-09-20T21:46:40.071Z,2.23
2022-09-20T21:49:11.103Z,2.00
2022-09-20T21:51:41.424Z,1.60
2022-09-20T21:54:11.019Z,2.10
2022-09-20T21:56:40.925Z,2.60
2022-09-20T21:59:09.545Z,2.13
2022-09-20T22:01:40.431Z,1.90
2022-09-20T22:04:11.922Z,2.37
2022-09-20T22:06:42.104Z,2.60
2022-09-20T22:09:12.480Z,2.33
2022-09-20T22:11:42.413Z,3.10
2022-09-20T22:14:12.139Z,2.17
2022-09-20T22:16:41.868Z,1.80
2022-09-20T22:19:15.143Z,1.97
2022-09-20T22:21:44.773Z,1.93
2022-09-20T22:24:14.371Z,1.90
2022-09-20T22:26:44.553Z,1.80
2022-09-20T22:29:13.435Z,1.60
2022-09-20T22:31:45.410Z,2.00
2022-09-20T22:34:33.404Z,2.27
2022-09-20T22:37:01.821Z,1.97
2022-09-20T22:39:30.108Z,2.03
2022-09-20T22:41:58.420Z,1.93
2022-09-20T22:44:26.800Z,1.57
2022-09-20T22:46:55.304Z,2.07
2022-09-20T22:49:23.559Z,1.77
2022-09-20T22:51:53.294Z,2.33
2022-09-20T22:54:21.631Z,2.00
2022-09-20T22:56:49.958Z,2.07
2022-09-20T22:59:18.243Z,2.27
2022-09-20T23:01:48.179Z,2.50
2022-09-20T23:04:18.909Z,2.27
2022-09-20T23:06:49.358Z,2.00
2022-09-20T23:09:19.860Z,2.10
2022-09-20T23:11:48.840Z,2.50
2022-09-20T23:14:18.648Z,2.10
2022-09-20T23:16:47.628Z,2.03
2022-09-20T23:19:16.478Z,1.80
2022-09-20T23:21:45.562Z,2.00
2022-09-20T23:24:16.156Z,1.80
2022-09-20T23:26:46.530Z,1.83
2022-09-20T23:29:16.425Z,2.07
2022-09-20T23:31:47.252Z,2.17
2022-09-20T23:34:16.736Z,2.17
2022-09-20T23:36:46.174Z,1.80
2022-09-20T23:39:14.732Z,1.93
2022-09-20T23:41:47.001Z,2.13
2022-09-20T23:44:19.948Z,2.17
2022-09-20T23:46:48.247Z,1.73
2022-09-20T23:49:16.617Z,2.07
2022-09-20T23:51:45.147Z,1.90
2022-09-20T23:54:13.538Z,1.77
2022-09-20T23:56:42.813Z,1.87
2022-09-20T23:59:11.216Z,2.07
